Alva, Kentucky
Current Conditions -  °F | °C
As of 3:55 PM on Thursday 20 Nov 2014 (Local Time) from KI35 Reporting Station
Clear Clear  
Wind Chill:   Ceiling: Unl
Heat Index:   Visibility: 10mi
Dew Point: -7°   Wind: 10mph
Humidity: 37%   Direction: 280°W
Pressure: 30.1"   Gusts: 17mph
Location:  36.747°N, 83.4563°W
Report Text: KI35 202055Z AUTO 28009G15KT 10SM CLR 07/M07 A3010 RMK AO1
Loading
Personal Weather Stations






























Interactive Weather Map New forecast layout! Learn more

10-Day Weather Forecast

Advertisements
Track Severe Weather on mobile